sensor_id;sensor_type;location;lat;lon;timestamp;pressure;altitude;pressure_sealevel;temperature;humidity
18765;BME280;9511;54.242;12.448;2023-05-23T03:06:14;101046.16;;;13.38;83.96
18765;BME280;9511;54.242;12.448;2023-05-23T03:08:42;101046.94;;;13.32;84.85
18765;BME280;9511;54.242;12.448;2023-05-23T03:11:10;101048.53;;;13.22;85.43
18765;BME280;9511;54.242;12.448;2023-05-23T03:13:37;101040.56;;;13.22;85.68
18765;BME280;9511;54.242;12.448;2023-05-23T03:16:04;101040.56;;;13.24;85.18
18765;BME280;9511;54.242;12.448;2023-05-23T03:18:32;101036.22;;;13.27;85.33
18765;BME280;9511;54.242;12.448;2023-05-23T03:20:59;101032.72;;;13.30;85.20
18765;BME280;9511;54.242;12.448;2023-05-23T03:23:27;101029.25;;;13.34;85.29
18765;BME280;9511;54.242;12.448;2023-05-23T03:25:55;101024.88;;;13.36;84.75
18765;BME280;9511;54.242;12.448;2023-05-23T03:28:22;101029.31;;;13.37;84.69
18765;BME280;9511;54.242;12.448;2023-05-23T03:30:51;101029.38;;;13.42;84.86
18765;BME280;9511;54.242;12.448;2023-05-23T03:33:18;101033.88;;;13.44;85.18
18765;BME280;9511;54.242;12.448;2023-05-23T03:35:46;101022.44;;;13.48;84.99
18765;BME280;9511;54.242;12.448;2023-05-23T03:38:13;101014.59;;;13.58;85.04
18765;BME280;9511;54.242;12.448;2023-05-23T03:40:42;101013.69;;;13.54;85.51
18765;BME280;9511;54.242;12.448;2023-05-23T03:43:09;101009.03;;;13.42;85.03
18765;BME280;9511;54.242;12.448;2023-05-23T03:45:39;101009.00;;;13.41;85.40
18765;BME280;9511;54.242;12.448;2023-05-23T03:48:11;101012.63;;;13.44;85.78
18765;BME280;9511;54.242;12.448;2023-05-23T03:50:40;101006.44;;;13.45;86.02
18765;BME280;9511;54.242;12.448;2023-05-23T03:53:07;101008.97;;;13.39;86.62
18765;BME280;9511;54.242;12.448;2023-05-23T03:55:35;101010.75;;;13.40;86.50
18765;BME280;9511;54.242;12.448;2023-05-23T03:58:04;101010.78;;;13.42;86.47
18765;BME280;9511;54.242;12.448;2023-05-23T04:00:31;101005.44;;;13.40;86.85
18765;BME280;9511;54.242;12.448;2023-05-23T04:03:00;101005.34;;;13.34;86.23
18765;BME280;9511;54.242;12.448;2023-05-23T04:05:29;101003.56;;;13.33;86.26
18765;BME280;9511;54.242;12.448;2023-05-23T04:07:57;100996.50;;;13.35;86.07
18765;BME280;9511;54.242;12.448;2023-05-23T04:10:27;101006.28;;;13.36;86.14
18765;BME280;9511;54.242;12.448;2023-05-23T04:12:54;101011.63;;;13.38;86.06
18765;BME280;9511;54.242;12.448;2023-05-23T04:15:23;101008.00;;;13.34;86.24
18765;BME280;9511;54.242;12.448;2023-05-23T04:18:06;101016.06;;;13.39;86.33
18765;BME280;9511;54.242;12.448;2023-05-23T04:20:34;101024.03;;;13.39;87.06
18765;BME280;9511;54.242;12.448;2023-05-23T04:23:01;101038.19;;;13.38;86.74
18765;BME280;9511;54.242;12.448;2023-05-23T04:25:30;101037.34;;;13.40;87.64
18765;BME280;9511;54.242;12.448;2023-05-23T04:28:25;101031.22;;;13.46;87.63
18765;BME280;9511;54.242;12.448;2023-05-23T04:30:54;101026.88;;;13.49;87.32
18765;BME280;9511;54.242;12.448;2023-05-23T04:33:26;101030.25;;;13.39;87.20
18765;BME280;9511;54.242;12.448;2023-05-23T04:35:55;101023.28;;;13.47;87.47
18765;BME280;9511;54.242;12.448;2023-05-23T04:38:23;101024.22;;;13.48;87.80
18765;BME280;9511;54.242;12.448;2023-05-23T04:40:51;101021.56;;;13.49;87.69
18765;BME280;9511;54.242;12.448;2023-05-23T04:43:37;101005.91;;;13.68;87.33
18765;BME280;9511;54.242;12.448;2023-05-23T04:46:23;101006.09;;;13.77;86.57
18765;BME280;9511;54.242;12.448;2023-05-23T04:49:05;100979.63;;;13.86;86.68
18765;BME280;9511;54.242;12.448;2023-05-23T04:51:32;100981.53;;;13.95;86.87
18765;BME280;9511;54.242;12.448;2023-05-23T04:54:10;100972.81;;;14.05;86.39
18765;BME280;9511;54.242;12.448;2023-05-23T04:56:37;100972.03;;;14.14;85.65
18765;BME280;9511;54.242;12.448;2023-05-23T04:59:05;100969.53;;;14.23;84.80
18765;BME280;9511;54.242;12.448;2023-05-23T05:01:35;100971.47;;;14.36;84.57
18765;BME280;9511;54.242;12.448;2023-05-23T05:04:05;100985.72;;;14.41;84.21
18765;BME280;9511;54.242;12.448;2023-05-23T05:06:33;100997.28;;;14.43;84.07
18765;BME280;9511;54.242;12.448;2023-05-23T05:09:00;100992.66;;;14.30;84.55
18765;BME280;9511;54.242;12.448;2023-05-23T05:11:27;100987.50;;;14.42;84.18
18765;BME280;9511;54.242;12.448;2023-05-23T05:13:54;100988.59;;;14.56;84.23
18765;BME280;9511;54.242;12.448;2023-05-23T05:16:22;100980.59;;;14.56;83.59
18765;BME280;9511;54.242;12.448;2023-05-23T05:18:51;100978.00;;;14.59;83.38
18765;BME280;9511;54.242;12.448;2023-05-23T05:21:19;100980.59;;;14.56;83.15
18765;BME280;9511;54.242;12.448;2023-05-23T05:23:47;100986.06;;;14.66;83.41
18765;BME280;9511;54.242;12.448;2023-05-23T05:26:16;100988.84;;;14.75;83.11
18765;BME280;9511;54.242;12.448;2023-05-23T05:28:44;100985.25;;;14.73;82.61
18765;BME280;9511;54.242;12.448;2023-05-23T05:31:11;100994.25;;;14.81;82.41
18765;BME280;9511;54.242;12.448;2023-05-23T05:33:40;100990.69;;;14.80;82.29
18765;BME280;9511;54.242;12.448;2023-05-23T05:36:14;100995.25;;;14.92;82.23
18765;BME280;9511;54.242;12.448;2023-05-23T05:38:42;100999.72;;;14.96;81.61
18765;BME280;9511;54.242;12.448;2023-05-23T05:41:10;100996.16;;;14.96;81.20
18765;BME280;9511;54.242;12.448;2023-05-23T05:43:49;100982.97;;;15.06;81.18
18765;BME280;9511;54.242;12.448;2023-05-23T05:46:17;100990.22;;;15.23;80.86
18765;BME280;9511;54.242;12.448;2023-05-23T05:48:45;100993.78;;;15.20;80.07
18765;BME280;9511;54.242;12.448;2023-05-23T05:51:14;101003.50;;;15.15;79.58
18765;BME280;9511;54.242;12.448;2023-05-23T05:53:42;101008.00;;;15.21;79.22
18765;BME280;9511;54.242;12.448;2023-05-23T05:56:09;101007.94;;;15.16;79.40
18765;BME280;9511;54.242;12.448;2023-05-23T05:58:38;100997.38;;;15.27;79.40
18765;BME280;9511;54.242;12.448;2023-05-23T06:01:07;100994.84;;;15.39;78.60
18765;BME280;9511;54.242;12.448;2023-05-23T06:03:35;101002.00;;;15.43;77.76
18765;BME280;9511;54.242;12.448;2023-05-23T06:06:02;100999.50;;;15.63;77.78
18765;BME280;9511;54.242;12.448;2023-05-23T06:08:31;100991.56;;;15.66;76.98
18765;BME280;9511;54.242;12.448;2023-05-23T06:10:58;100988.00;;;15.69;76.30
18765;BME280;9511;54.242;12.448;2023-05-23T06:13:26;100980.06;;;15.75;76.06
18765;BME280;9511;54.242;12.448;2023-05-23T06:15:53;100985.41;;;15.78;76.22
18765;BME280;9511;54.242;12.448;2023-05-23T06:18:22;100986.41;;;15.90;76.10
18765;BME280;9511;54.242;12.448;2023-05-23T06:20:51;100987.22;;;15.82;75.89
18765;BME280;9511;54.242;12.448;2023-05-23T06:23:20;100983.72;;;15.89;75.61
18765;BME280;9511;54.242;12.448;2023-05-23T06:25:49;100972.13;;;15.87;74.98
18765;BME280;9511;54.242;12.448;2023-05-23T06:28:16;100973.09;;;15.95;75.52
18765;BME280;9511;54.242;12.448;2023-05-23T06:30:45;100970.56;;;16.18;75.36
18765;BME280;9511;54.242;12.448;2023-05-23T06:33:12;100978.66;;;16.38;74.69
18765;BME280;9511;54.242;12.448;2023-05-23T06:35:41;100977.84;;;16.53;73.93
18765;BME280;9511;54.242;12.448;2023-05-23T06:38:09;100981.47;;;16.70;73.33
18765;BME280;9511;54.242;12.448;2023-05-23T06:40:36;100978.84;;;16.71;73.30
18765;BME280;9511;54.242;12.448;2023-05-23T06:43:05;100974.38;;;16.70;73.38
18765;BME280;9511;54.242;12.448;2023-05-23T06:45:39;100984.22;;;16.82;72.76
18765;BME280;9511;54.242;12.448;2023-05-23T06:48:09;100984.22;;;16.81;72.70
18765;BME280;9511;54.242;12.448;2023-05-23T06:50:37;100982.44;;;16.84;72.58
18765;BME280;9511;54.242;12.448;2023-05-23T06:53:05;100990.34;;;16.67;72.72
18765;BME280;9511;54.242;12.448;2023-05-23T06:55:33;100985.84;;;16.56;73.25
18765;BME280;9511;54.242;12.448;2023-05-23T06:58:01;100989.59;;;16.93;72.98
18765;BME280;9511;54.242;12.448;2023-05-23T07:00:31;100984.22;;;16.90;72.73
18765;BME280;9511;54.242;12.448;2023-05-23T07:03:21;100986.97;;;17.11;72.55
18765;BME280;9511;54.242;12.448;2023-05-23T07:05:49;100986.09;;;17.21;72.34
18765;BME280;9511;54.242;12.448;2023-05-23T07:08:18;100971.81;;;17.32;71.92
18765;BME280;9511;54.242;12.448;2023-05-23T07:10:58;100981.63;;;17.37;71.22
18765;BME280;9511;54.242;12.448;2023-05-23T07:13:48;100985.16;;;17.09;70.69
18765;BME280;9511;54.242;12.448;2023-05-23T07:16:23;100985.13;;;16.95;70.71
18765;BME280;9511;54.242;12.448;2023-05-23T07:18:59;100981.59;;;17.02;71.21
18765;BME280;9511;54.242;12.448;2023-05-23T07:21:27;100973.59;;;17.11;70.89
18765;BME280;9511;54.242;12.448;2023-05-23T07:23:55;100984.31;;;17.30;70.40
18765;BME280;9511;54.242;12.448;2023-05-23T07:26:22;100981.63;;;17.37;69.88
18765;BME280;9511;54.242;12.448;2023-05-23T07:28:54;100972.75;;;17.46;69.94
18765;BME280;9511;54.242;12.448;2023-05-23T07:31:23;100982.56;;;17.39;69.12
18765;BME280;9511;54.242;12.448;2023-05-23T07:33:53;100998.59;;;17.53;69.43
18765;BME280;9511;54.242;12.448;2023-05-23T07:36:26;100987.88;;;17.65;68.67
18765;BME280;9511;54.242;12.448;2023-05-23T07:38:54;100986.13;;;17.52;68.54
18765;BME280;9511;54.242;12.448;2023-05-23T07:41:22;100979.88;;;17.61;68.39
18765;BME280;9511;54.242;12.448;2023-05-23T07:43:49;100976.31;;;17.88;68.16
18765;BME280;9511;54.242;12.448;2023-05-23T07:46:16;100986.13;;;17.98;67.70
18765;BME280;9511;54.242;12.448;2023-05-23T07:48:45;100975.41;;;17.92;67.35
18765;BME280;9511;54.242;12.448;2023-05-23T07:51:13;100983.44;;;17.92;67.68
18765;BME280;9511;54.242;12.448;2023-05-23T07:53:41;100983.44;;;18.01;68.29
18765;BME280;9511;54.242;12.448;2023-05-23T07:56:11;100987.88;;;18.08;67.92
18765;BME280;9511;54.242;12.448;2023-05-23T07:58:40;100995.91;;;18.10;67.28
18765;BME280;9511;54.242;12.448;2023-05-23T08:01:08;100990.59;;;18.02;66.82
18765;BME280;9511;54.242;12.448;2023-05-23T08:04:09;100991.47;;;17.95;68.04
18765;BME280;9511;54.242;12.448;2023-05-23T08:06:46;100996.84;;;17.81;68.17
18765;BME280;9511;54.242;12.448;2023-05-23T08:09:32;101003.09;;;17.86;68.96
18765;BME280;9511;54.242;12.448;2023-05-23T08:12:18;101012.00;;;17.76;69.21
18765;BME280;9511;54.242;12.448;2023-05-23T08:14:49;101018.25;;;17.73;69.25
18765;BME280;9511;54.242;12.448;2023-05-23T08:17:37;101022.72;;;17.73;70.19
18765;BME280;9511;54.242;12.448;2023-05-23T08:20:07;101016.47;;;17.75;70.37
18765;BME280;9511;54.242;12.448;2023-05-23T08:22:35;101028.94;;;17.67;70.57
18765;BME280;9511;54.242;12.448;2023-05-23T08:25:04;101037.81;;;17.54;71.18
18765;BME280;9511;54.242;12.448;2023-05-23T08:27:34;101045.84;;;17.45;71.32
18765;BME280;9511;54.242;12.448;2023-05-23T08:30:10;101043.16;;;17.36;71.83
18765;BME280;9511;54.242;12.448;2023-05-23T08:32:38;101039.50;;;17.06;72.23
18765;BME280;9511;54.242;12.448;2023-05-23T08:35:07;101044.94;;;17.28;73.28
18765;BME280;9511;54.242;12.448;2023-05-23T08:37:36;101043.97;;;16.98;73.59
18765;BME280;9511;54.242;12.448;2023-05-23T08:40:06;101049.25;;;16.90;74.52
18765;BME280;9511;54.242;12.448;2023-05-23T08:42:45;101051.00;;;16.82;75.18
18765;BME280;9511;54.242;12.448;2023-05-23T08:45:14;101034.13;;;16.88;75.46
18765;BME280;9511;54.242;12.448;2023-05-23T08:47:43;101041.25;;;16.93;75.49
18765;BME280;9511;54.242;12.448;2023-05-23T08:50:13;101046.56;;;16.90;74.86
18765;BME280;9511;54.242;12.448;2023-05-23T08:52:45;101048.28;;;16.73;75.54
18765;BME280;9511;54.242;12.448;2023-05-23T08:55:16;101048.34;;;16.84;75.96
18765;BME280;9511;54.242;12.448;2023-05-23T08:57:43;101051.09;;;16.97;75.97
18765;BME280;9511;54.242;12.448;2023-05-23T09:00:39;101057.38;;;17.16;75.78
18765;BME280;9511;54.242;12.448;2023-05-23T09:03:07;101056.50;;;17.30;75.86
18765;BME280;9511;54.242;12.448;2023-05-23T09:06:18;101057.44;;;17.59;75.19
18765;BME280;9511;54.242;12.448;2023-05-23T09:08:48;101059.22;;;17.54;75.14
18765;BME280;9511;54.242;12.448;2023-05-23T09:11:18;101065.47;;;17.64;75.22
18765;BME280;9511;54.242;12.448;2023-05-23T09:13:47;101062.81;;;17.71;75.57
18765;BME280;9511;54.242;12.448;2023-05-23T09:16:16;101061.03;;;17.70;74.92
18765;BME280;9511;54.242;12.448;2023-05-23T09:18:49;101054.81;;;17.91;75.06
18765;BME280;9511;54.242;12.448;2023-05-23T09:21:21;101062.78;;;17.65;74.27
18765;BME280;9511;54.242;12.448;2023-05-23T09:23:59;101048.56;;;18.12;74.89
18765;BME280;9511;54.242;12.448;2023-05-23T09:26:28;101053.81;;;18.61;73.36
18765;BME280;9511;54.242;12.448;2023-05-23T09:28:56;101048.47;;;18.70;71.84
18765;BME280;9511;54.242;12.448;2023-05-23T09:31:25;101050.03;;;19.14;70.46
18765;BME280;9511;54.242;12.448;2023-05-23T09:33:53;101047.38;;;19.16;69.01
18765;BME280;9511;54.242;12.448;2023-05-23T09:36:22;101051.84;;;19.07;68.95
18765;BME280;9511;54.242;12.448;2023-05-23T09:38:49;101048.31;;;19.01;69.06
18765;BME280;9511;54.242;12.448;2023-05-23T09:41:19;101039.13;;;19.42;68.71
18765;BME280;9511;54.242;12.448;2023-05-23T09:43:50;101037.44;;;19.25;67.43
18765;BME280;9511;54.242;12.448;2023-05-23T09:46:19;101038.41;;;19.21;67.03
18765;BME280;9511;54.242;12.448;2023-05-23T09:48:47;101041.13;;;19.07;67.62
18765;BME280;9511;54.242;12.448;2023-05-23T09:51:19;101037.25;;;19.62;67.21
18765;BME280;9511;54.242;12.448;2023-05-23T09:53:49;101036.63;;;20.31;66.02
18765;BME280;9511;54.242;12.448;2023-05-23T09:56:17;101031.22;;;20.32;64.79
18765;BME280;9511;54.242;12.448;2023-05-23T09:58:46;101033.94;;;20.31;65.07
18765;BME280;9511;54.242;12.448;2023-05-23T10:01:15;101035.53;;;19.46;66.24
18765;BME280;9511;54.242;12.448;2023-05-23T10:03:45;101040.63;;;19.87;66.06
18765;BME280;9511;54.242;12.448;2023-05-23T10:06:20;101037.16;;;19.71;65.70
18765;BME280;9511;54.242;12.448;2023-05-23T10:08:54;101040.41;;;20.10;65.15
18765;BME280;9511;54.242;12.448;2023-05-23T10:14:37;101047.84;;;19.80;64.70
18765;BME280;9511;54.242;12.448;2023-05-23T10:17:11;101060.94;;;20.19;63.51
18765;BME280;9511;54.242;12.448;2023-05-23T10:19:43;101055.28;;;20.49;62.88
18765;BME280;9511;54.242;12.448;2023-05-23T10:22:13;101053.00;;;20.89;61.90
18765;BME280;9511;54.242;12.448;2023-05-23T10:24:45;101059.06;;;20.24;61.79
18765;BME280;9511;54.242;12.448;2023-05-23T10:27:14;101070.94;;;20.00;62.94
18765;BME280;9511;54.242;12.448;2023-05-23T10:29:42;101069.31;;;19.80;62.91
18765;BME280;9511;54.242;12.448;2023-05-23T10:32:11;101065.88;;;19.54;64.41
18765;BME280;9511;54.242;12.448;2023-05-23T10:34:45;101073.25;;;19.21;64.97
18765;BME280;9511;54.242;12.448;2023-05-23T10:37:33;101075.72;;;19.53;64.74
18765;BME280;9511;54.242;12.448;2023-05-23T10:40:08;101072.47;;;18.92;65.78
18765;BME280;9511;54.242;12.448;2023-05-23T10:42:48;101079.59;;;19.05;67.16
18765;BME280;9511;54.242;12.448;2023-05-23T10:45:20;101080.28;;;19.37;65.65
18765;BME280;9511;54.242;12.448;2023-05-23T10:47:49;101080.44;;;19.13;66.29
18765;BME280;9511;54.242;12.448;2023-05-23T10:50:30;101082.34;;;18.83;67.46
18765;BME280;9511;54.242;12.448;2023-05-23T10:52:59;101089.53;;;18.69;68.64
18765;BME280;9511;54.242;12.448;2023-05-23T10:55:31;101085.09;;;18.53;68.62
18765;BME280;9511;54.242;12.448;2023-05-23T10:58:09;101100.28;;;18.52;68.58
18765;BME280;9511;54.242;12.448;2023-05-23T11:00:37;101094.06;;;18.41;68.49
18765;BME280;9511;54.242;12.448;2023-05-23T11:03:05;101094.94;;;18.28;68.98
18765;BME280;9511;54.242;12.448;2023-05-23T11:05:33;101100.31;;;18.00;70.28
18765;BME280;9511;54.242;12.448;2023-05-23T11:08:07;101105.66;;;18.17;69.65
18765;BME280;9511;54.242;12.448;2023-05-23T11:10:57;101103.91;;;18.02;70.75
18765;BME280;9511;54.242;12.448;2023-05-23T11:13:55;101102.03;;;18.52;69.03
18765;BME280;9511;54.242;12.448;2023-05-23T11:16:26;101103.84;;;18.41;68.10
18765;BME280;9511;54.242;12.448;2023-05-23T11:21:58;101113.63;;;18.78;68.01
18765;BME280;9511;54.242;12.448;2023-05-23T11:24:48;101114.44;;;19.05;66.25
18765;BME280;9511;54.242;12.448;2023-05-23T11:27:25;101120.78;;;18.73;66.30
18765;BME280;9511;54.242;12.448;2023-05-23T11:29:57;101117.25;;;18.50;66.78
18765;BME280;9511;54.242;12.448;2023-05-23T11:32:27;101115.44;;;18.52;67.40
18765;BME280;9511;54.242;12.448;2023-05-23T11:34:54;101121.72;;;18.39;67.61
18765;BME280;9511;54.242;12.448;2023-05-23T11:37:21;101117.28;;;17.86;68.00
18765;BME280;9511;54.242;12.448;2023-05-23T11:39:49;101121.66;;;17.65;68.33
18765;BME280;9511;54.242;12.448;2023-05-23T11:42:18;101119.00;;;17.71;69.00
18765;BME280;9511;54.242;12.448;2023-05-23T11:44:48;101125.25;;;17.70;69.62
18765;BME280;9511;54.242;12.448;2023-05-23T11:47:15;101127.88;;;17.46;69.99
18765;BME280;9511;54.242;12.448;2023-05-23T11:49:44;101127.78;;;17.17;69.66
18765;BME280;9511;54.242;12.448;2023-05-23T11:52:13;101135.72;;;17.02;68.97
18765;BME280;9511;54.242;12.448;2023-05-23T11:54:41;101133.06;;;17.05;68.44
18765;BME280;9511;54.242;12.448;2023-05-23T11:57:08;101131.22;;;16.93;68.41
18765;BME280;9511;54.242;12.448;2023-05-23T11:59:37;101143.75;;;17.06;68.99
18765;BME280;9511;54.242;12.448;2023-05-23T12:02:05;101146.41;;;17.00;68.01
18765;BME280;9511;54.242;12.448;2023-05-23T12:04:33;101149.84;;;16.78;68.89
18765;BME280;9511;54.242;12.448;2023-05-23T12:07:04;101152.31;;;16.52;69.64
18765;BME280;9511;54.242;12.448;2023-05-23T12:09:40;101149.88;;;16.81;70.06
18765;BME280;9511;54.242;12.448;2023-05-23T12:12:08;101151.59;;;16.71;69.75
18765;BME280;9511;54.242;12.448;2023-05-23T12:14:35;101151.63;;;16.76;70.39
18765;BME280;9511;54.242;12.448;2023-05-23T12:17:11;101158.56;;;16.52;70.27
18765;BME280;9511;54.242;12.448;2023-05-23T12:19:39;101178.94;;;16.41;71.42
18765;BME280;9511;54.242;12.448;2023-05-23T12:22:11;101172.72;;;16.45;73.37
18765;BME280;9511;54.242;12.448;2023-05-23T12:24:44;101183.25;;;16.27;74.48
18765;BME280;9511;54.242;12.448;2023-05-23T12:27:12;101179.56;;;16.09;75.53
18765;BME280;9511;54.242;12.448;2023-05-23T12:29:40;101178.53;;;15.95;76.48
18765;BME280;9511;54.242;12.448;2023-05-23T12:32:07;101177.56;;;15.88;77.91
18765;BME280;9511;54.242;12.448;2023-05-23T12:34:40;101186.25;;;15.71;78.54
18765;BME280;9511;54.242;12.448;2023-05-23T12:37:07;101182.81;;;15.78;79.07
18765;BME280;9511;54.242;12.448;2023-05-23T12:39:35;101179.03;;;15.60;79.57
18765;BME280;9511;54.242;12.448;2023-05-23T12:42:08;101178.91;;;15.51;79.85
18765;BME280;9511;54.242;12.448;2023-05-23T12:44:36;101181.38;;;15.34;80.57
18765;BME280;9511;54.242;12.448;2023-05-23T12:47:09;101180.44;;;15.31;82.31
18765;BME280;9511;54.242;12.448;2023-05-23T12:49:41;101186.66;;;15.30;82.65
18765;BME280;9511;54.242;12.448;2023-05-23T12:52:09;101189.97;;;15.13;83.14
18765;BME280;9511;54.242;12.448;2023-05-23T12:54:37;101187.31;;;15.13;84.19
18765;BME280;9511;54.242;12.448;2023-05-23T12:57:04;101187.06;;;14.95;84.37
18765;BME280;9511;54.242;12.448;2023-05-23T12:59:31;101194.41;;;15.11;84.44
18765;BME280;9511;54.242;12.448;2023-05-23T13:01:59;101192.69;;;15.17;84.91
18765;BME280;9511;54.242;12.448;2023-05-23T13:04:27;101204.56;;;14.78;84.32
18765;BME280;9511;54.242;12.448;2023-05-23T13:06:56;101206.00;;;14.54;85.49
18765;BME280;9511;54.242;12.448;2023-05-23T13:09:23;101211.94;;;14.40;86.09
18765;BME280;9511;54.242;12.448;2023-05-23T13:11:50;101216.53;;;14.48;86.52
18765;BME280;9511;54.242;12.448;2023-05-23T13:14:18;101223.28;;;14.28;86.80
18765;BME280;9511;54.242;12.448;2023-05-23T13:16:45;101225.94;;;14.28;86.87
18765;BME280;9511;54.242;12.448;2023-05-23T13:19:12;101225.69;;;14.16;87.16
18765;BME280;9511;54.242;12.448;2023-05-23T13:21:40;101231.50;;;13.93;88.03
18765;BME280;9511;54.242;12.448;2023-05-23T13:24:08;101232.94;;;13.76;89.02
18765;BME280;9511;54.242;12.448;2023-05-23T13:26:36;101231.78;;;13.63;90.22
18765;BME280;9511;54.242;12.448;2023-05-23T13:29:03;101233.53;;;13.61;91.21
18765;BME280;9511;54.242;12.448;2023-05-23T13:31:31;101235.97;;;13.50;92.35
18765;BME280;9511;54.242;12.448;2023-05-23T13:33:58;101234.94;;;13.44;93.35
18765;BME280;9511;54.242;12.448;2023-05-23T13:36:26;101244.59;;;13.40;93.83
18765;BME280;9511;54.242;12.448;2023-05-23T13:38:53;101256.72;;;13.26;93.83
18765;BME280;9511;54.242;12.448;2023-05-23T13:41:22;101255.84;;;13.27;94.32
18765;BME280;9511;54.242;12.448;2023-05-23T13:43:49;101249.41;;;13.19;94.89
18765;BME280;9511;54.242;12.448;2023-05-23T13:46:16;101257.38;;;13.19;96.29
18765;BME280;9511;54.242;12.448;2023-05-23T13:48:44;101263.41;;;13.10;97.63
18765;BME280;9511;54.242;12.448;2023-05-23T13:51:11;101265.75;;;12.96;98.13
18765;BME280;9511;54.242;12.448;2023-05-23T13:53:38;101269.91;;;12.85;98.82
18765;BME280;9511;54.242;12.448;2023-05-23T13:56:06;101267.88;;;12.75;99.81
18765;BME280;9511;54.242;12.448;2023-05-23T13:58:34;101267.78;;;12.72;100.00
18765;BME280;9511;54.242;12.448;2023-05-23T14:01:02;101269.53;;;12.70;100.00
18765;BME280;9511;54.242;12.448;2023-05-23T14:03:29;101268.38;;;12.59;100.00
18765;BME280;9511;54.242;12.448;2023-05-23T14:05:56;101265.56;;;12.53;100.00
18765;BME280;9511;54.242;12.448;2023-05-23T14:08:24;101270.72;;;12.46;100.00
18765;BME280;9511;54.242;12.448;2023-05-23T14:10:51;101281.31;;;12.46;100.00
18765;BME280;9511;54.242;12.448;2023-05-23T14:13:18;101280.34;;;12.43;100.00
18765;BME280;9511;54.242;12.448;2023-05-23T14:15:49;101278.25;;;12.31;100.00
18765;BME280;9511;54.242;12.448;2023-05-23T14:18:16;101278.22;;;12.30;100.00
18765;BME280;9511;54.242;12.448;2023-05-23T14:20:44;101287.94;;;12.29;100.00
18765;BME280;9511;54.242;12.448;2023-05-23T14:23:11;101288.16;;;12.38;100.00
18765;BME280;9511;54.242;12.448;2023-05-23T14:25:38;101290.00;;;12.39;100.00
18765;BME280;9511;54.242;12.448;2023-05-23T14:28:06;101302.00;;;12.27;100.00
18765;BME280;9511;54.242;12.448;2023-05-23T14:30:33;101301.84;;;12.20;100.00
18765;BME280;9511;54.242;12.448;2023-05-23T14:33:02;101299.56;;;12.01;100.00
18765;BME280;9511;54.242;12.448;2023-05-23T14:35:29;101305.69;;;11.99;100.00
18765;BME280;9511;54.242;12.448;2023-05-23T14:37:57;101300.56;;;12.05;100.00
18765;BME280;9511;54.242;12.448;2023-05-23T14:40:24;101310.31;;;12.06;100.00
18765;BME280;9511;54.242;12.448;2023-05-23T14:42:51;101309.78;;;11.87;100.00
18765;BME280;9511;54.242;12.448;2023-05-23T14:45:19;101308.75;;;11.82;100.00
18765;BME280;9511;54.242;12.448;2023-05-23T14:47:46;101305.03;;;11.77;100.00
18765;BME280;9511;54.242;12.448;2023-05-23T14:50:15;101317.97;;;11.66;100.00
18765;BME280;9511;54.242;12.448;2023-05-23T14:52:42;101319.78;;;11.69;100.00
18765;BME280;9511;54.242;12.448;2023-05-23T14:55:09;101328.78;;;11.74;100.00
18765;BME280;9511;54.242;12.448;2023-05-23T14:57:37;101328.59;;;11.68;100.00
18765;BME280;9511;54.242;12.448;2023-05-23T15:00:05;101330.41;;;11.69;100.00
18765;BME280;9511;54.242;12.448;2023-05-23T15:02:33;101333.72;;;11.62;100.00
18765;BME280;9511;54.242;12.448;2023-05-23T15:05:00;101328.28;;;11.57;100.00
18765;BME280;9511;54.242;12.448;2023-05-23T15:07:29;101328.09;;;11.51;100.00
18765;BME280;9511;54.242;12.448;2023-05-23T15:09:57;101335.00;;;11.46;100.00
18765;BME280;9511;54.242;12.448;2023-05-23T15:12:24;101330.69;;;11.48;100.00
18765;BME280;9511;54.242;12.448;2023-05-23T15:14:51;101335.06;;;11.48;100.00
18765;BME280;9511;54.242;12.448;2023-05-23T15:17:19;101343.22;;;11.25;100.00
18765;BME280;9511;54.242;12.448;2023-05-23T15:19:47;101339.88;;;11.32;100.00
18765;BME280;9511;54.242;12.448;2023-05-23T15:22:15;101339.69;;;11.26;100.00
18765;BME280;9511;54.242;12.448;2023-05-23T15:24:43;101341.69;;;11.33;100.00
18765;BME280;9511;54.242;12.448;2023-05-23T15:27:11;101342.44;;;11.29;100.00
18765;BME280;9511;54.242;12.448;2023-05-23T15:29:38;101347.16;;;11.39;100.00
18765;BME280;9511;54.242;12.448;2023-05-23T15:32:06;101337.28;;;11.34;100.00
18765;BME280;9511;54.242;12.448;2023-05-23T15:34:33;101356.59;;;11.30;100.00
18765;BME280;9511;54.242;12.448;2023-05-23T15:37:01;101351.03;;;11.22;100.00
18765;BME280;9511;54.242;12.448;2023-05-23T15:39:28;101341.41;;;11.24;100.00
18765;BME280;9511;54.242;12.448;2023-05-23T15:41:58;101340.63;;;11.28;100.00
18765;BME280;9511;54.242;12.448;2023-05-23T15:44:25;101344.19;;;11.29;100.00
18765;BME280;9511;54.242;12.448;2023-05-23T15:46:52;101342.53;;;11.32;100.00
18765;BME280;9511;54.242;12.448;2023-05-23T15:49:20;101341.91;;;11.41;100.00
18765;BME280;9511;54.242;12.448;2023-05-23T15:51:47;101348.88;;;11.37;100.00
18765;BME280;9511;54.242;12.448;2023-05-23T15:54:14;101348.25;;;11.46;100.00
18765;BME280;9511;54.242;12.448;2023-05-23T15:56:42;101349.22;;;11.48;100.00
18765;BME280;9511;54.242;12.448;2023-05-23T15:59:10;101355.41;;;11.49;100.00
18765;BME280;9511;54.242;12.448;2023-05-23T16:01:38;101342.25;;;11.52;100.00
18765;BME280;9511;54.242;12.448;2023-05-23T16:04:06;101348.41;;;11.51;100.00
18765;BME280;9511;54.242;12.448;2023-05-23T16:06:33;101345.03;;;11.56;100.00
18765;BME280;9511;54.242;12.448;2023-05-23T16:09:01;101351.22;;;11.57;100.00
18765;BME280;9511;54.242;12.448;2023-05-23T16:11:28;101349.56;;;11.59;100.00
18765;BME280;9511;54.242;12.448;2023-05-23T16:13:56;101345.00;;;11.55;100.00